This is the latest recevied weather packets stored in our database for station/object K42C. If no packets are shown the sender has not sent any weather packets the latest 1 day(s).
| Time | Temp. | Humidity | Pressure | Rain* | Wind** | Luminosity | Snow |
|---|---|---|---|---|---|---|---|
| 1778107229 | 11.11° C | 50% | 975 hPa | 0 mm | 0 m/s | - | - |
| 1778106828 | 11.11° C | 49% | 974.9 hPa | 0 mm | 1.79 m/s, 250° | - | - |
| 1778103635 | 11.67° C | 48% | 974.8 hPa | 0 mm | 1.34 m/s, 236° | - | - |
| 1778101641 | 11.67° C | 45% | 974.8 hPa | 0 mm | 4.02 m/s, 264° | - | - |
| 1778098047 | 12.22° C | 45% | 974.8 hPa | 0 mm | 0.89 m/s, 281° | - | - |
| 1778096053 | 11.11° C | 48% | 975.1 hPa | 0 mm | 0.89 m/s, 260° | - | - |
| 1778095652 | 11.11° C | 47% | 975.2 hPa | 0 mm | 0.89 m/s, 224° | - | - |
| 1778095255 | 11.11° C | 46% | 975 hPa | 0 mm | 2.68 m/s, 280° | - | - |
| 1778094854 | 11.11° C | 46% | 975.2 hPa | 0 mm | 0.45 m/s, 170° | - | - |
| 1778092062 | 10.56° C | 49% | 975.2 hPa | 0 mm | 1.34 m/s, 231° | - | - |
| 1778091661 | 10.56° C | 49% | 975.3 hPa | 0 mm | 2.24 m/s, 338° | - | - |
| 1778090863 | 10.56° C | 49% | 975.5 hPa | 0 mm | 3.13 m/s, 238° | - | - |
| 1778089314 | 10.56° C | 51% | 975.6 hPa | 0 mm | 0 m/s | - | - |
| 1778088869 | 10° C | 52% | 975.6 hPa | 0 mm | 1.34 m/s, 288° | - | - |
| 1778088468 | 10° C | 52% | 975.7 hPa | 0 mm | 2.68 m/s, 240° | - | - |
| 1778088071 | 10° C | 53% | 975.7 hPa | 0 mm | 1.79 m/s, 236° | - | - |
| 1778087670 | 10° C | 54% | 975.8 hPa | 0 mm | 1.79 m/s, 194° | - | - |
| 1778085676 | 9.44° C | 56% | 975.8 hPa | 0 mm | 2.24 m/s, 238° | - | - |
| 1778084878 | 9.44° C | 55% | 975.8 hPa | 0 mm | 1.79 m/s, 290° | - | - |
| 1778084477 | 10° C | 54% | 975.7 hPa | 0 mm | 1.34 m/s, 225° | - | - |
| 1778083679 | 10° C | 54% | 975.8 hPa | 0 mm | 1.79 m/s, 281° | - | - |
| 1778082524 | 9.44° C | 54% | 975.8 hPa | 0 mm | 0 m/s | - | - |
| 1778080486 | 9.44° C | 57% | 975.5 hPa | 0 mm | 3.13 m/s, 243° | - | - |
| 1778079688 | 9.44° C | 59% | 975.6 hPa | 0 mm | 1.34 m/s, 166° | - | - |
| 1778077293 | 8.33° C | 68% | 975.7 hPa | 0 mm | 2.24 m/s, 165° | - | - |
* Rain latest hour (hover to see other rain measurements)
** Current wind speed in m/s (hover to see current wind gust speed)